createdAt,value
2022-12-22T00:01:35.935Z,303.08
2022-12-22T00:04:41.665Z,294.15
2022-12-22T00:07:47.384Z,282.75
2022-12-22T00:10:53.043Z,289.05
2022-12-22T00:14:00.144Z,267.25
2022-12-22T00:17:07.535Z,288.05
2022-12-22T00:20:18.282Z,280.48
2022-12-22T00:23:24.491Z,272.25
2022-12-22T00:26:30.708Z,285.45
2022-12-22T00:29:36.508Z,302.90
2022-12-22T00:32:48.596Z,278.67
2022-12-22T00:35:54.266Z,297.38
2022-12-22T00:38:59.683Z,286.33
2022-12-22T00:42:05.268Z,291.52
2022-12-22T00:45:11.136Z,287.52
2022-12-22T00:48:18.396Z,296.58
2022-12-22T00:51:24.639Z,298.20
2022-12-22T00:54:31.932Z,297.83
2022-12-22T00:57:41.874Z,308.17
2022-12-22T01:00:47.576Z,310.88
2022-12-22T01:03:54.657Z,330.80
2022-12-22T01:07:01.887Z,313.40
2022-12-22T01:10:09.982Z,324.05
2022-12-22T01:13:15.653Z,323.75
2022-12-22T01:16:21.240Z,325.73
2022-12-22T01:19:27.961Z,329.02
2022-12-22T01:22:39.620Z,321.05
2022-12-22T01:25:45.435Z,303.38
2022-12-22T01:28:51.099Z,342.30
2022-12-22T01:31:57.349Z,320.98
2022-12-22T01:35:04.328Z,317.83
2022-12-22T01:38:10.084Z,314.03
2022-12-22T01:41:17.416Z,298.45
2022-12-22T01:44:32.144Z,323.13
2022-12-22T01:47:49.498Z,308.20
2022-12-22T01:50:56.457Z,296.77
2022-12-22T01:54:02.241Z,322.48
2022-12-22T01:57:08.456Z,331.15
2022-12-22T02:00:14.083Z,343.77
2022-12-22T02:03:19.898Z,318.85
2022-12-22T02:06:36.860Z,340.40
2022-12-22T02:09:58.506Z,321.75
2022-12-22T02:13:08.752Z,336.88
2022-12-22T02:16:20.195Z,335.02
2022-12-22T02:19:33.973Z,352.50
2022-12-22T02:22:47.911Z,323.65
2022-12-22T02:25:59.951Z,309.67
2022-12-22T02:29:08.653Z,349.27
2022-12-22T02:32:14.934Z,337.23
2022-12-22T02:35:20.785Z,341.00
2022-12-22T02:38:37.618Z,333.52
2022-12-22T02:41:50.772Z,356.05
2022-12-22T02:45:04.794Z,338.10
2022-12-22T02:48:21.148Z,334.15
2022-12-22T02:51:32.550Z,345.58
2022-12-22T02:54:40.744Z,318.85
2022-12-22T02:57:47.560Z,350.63
2022-12-22T03:00:54.606Z,355.48
2022-12-22T03:04:00.171Z,329.08
2022-12-22T03:07:05.796Z,350.40
2022-12-22T03:10:11.481Z,348.00
2022-12-22T03:13:17.673Z,344.20
2022-12-22T03:16:24.668Z,345.25
2022-12-22T03:19:30.390Z,331.27
2022-12-22T03:22:35.948Z,339.95
2022-12-22T03:25:41.842Z,358.38
2022-12-22T03:28:30.213Z,355.20
2022-12-22T03:31:19.588Z,356.00
2022-12-22T03:34:07.582Z,376.10
2022-12-22T03:36:55.566Z,360.33
2022-12-22T03:39:43.519Z,380.02
2022-12-22T03:42:49.389Z,337.58
2022-12-22T03:45:54.106Z,345.88
2022-12-22T03:48:43.768Z,344.27
2022-12-22T03:51:31.755Z,355.80
2022-12-22T03:54:21.854Z,334.48
2022-12-22T03:57:09.900Z,342.52
2022-12-22T03:59:58.013Z,349.38
2022-12-22T04:02:46.199Z,346.45
2022-12-22T04:05:35.708Z,330.35
2022-12-22T04:08:23.676Z,347.80
2022-12-22T04:11:30.732Z,335.55
2022-12-22T04:14:18.776Z,332.20
2022-12-22T04:17:08.143Z,337.95
2022-12-22T04:19:56.138Z,321.50
2022-12-22T04:22:45.740Z,338.98
2022-12-22T04:25:33.813Z,362.27
2022-12-22T04:28:21.888Z,326.33
2022-12-22T04:31:09.886Z,325.88
2022-12-22T04:33:57.870Z,357.13
2022-12-22T04:36:45.942Z,351.40
2022-12-22T04:39:35.318Z,322.17
2022-12-22T04:42:23.355Z,339.90
2022-12-22T04:45:12.058Z,339.23
2022-12-22T04:48:00.095Z,323.90
2022-12-22T04:50:51.465Z,326.92
2022-12-22T04:53:39.532Z,337.38
2022-12-22T04:56:28.848Z,339.13
2022-12-22T04:59:16.793Z,313.02
2022-12-22T05:02:04.836Z,312.30
2022-12-22T05:04:52.989Z,325.25
2022-12-22T05:07:40.965Z,330.17
2022-12-22T05:10:29.024Z,300.02
2022-12-22T05:13:18.365Z,338.83
2022-12-22T05:16:07.896Z,322.20
2022-12-22T05:18:56.025Z,327.67
2022-12-22T05:21:44.052Z,318.65
2022-12-22T05:24:32.045Z,323.83
2022-12-22T05:27:20.559Z,351.25
2022-12-22T05:30:11.222Z,330.73
2022-12-22T05:32:59.168Z,336.13
2022-12-22T05:35:47.145Z,346.42
2022-12-22T05:38:35.160Z,344.08
2022-12-22T05:41:23.202Z,341.85
2022-12-22T05:44:11.281Z,338.40
2022-12-22T05:47:00.580Z,360.45
2022-12-22T05:49:48.514Z,367.02
2022-12-22T05:52:36.879Z,375.50
2022-12-22T05:55:24.903Z,336.60
2022-12-22T05:58:12.874Z,365.85
2022-12-22T06:01:02.516Z,365.63
2022-12-22T06:03:57.758Z,376.73
2022-12-22T06:06:47.812Z,378.05
2022-12-22T06:09:35.828Z,373.20
2022-12-22T06:12:23.873Z,342.65
2022-12-22T06:15:14.328Z,346.10
2022-12-22T06:18:02.322Z,381.25
2022-12-22T06:20:53.544Z,351.85
2022-12-22T06:23:41.551Z,353.88
2022-12-22T06:26:29.509Z,370.50
2022-12-22T06:29:17.539Z,373.45
2022-12-22T06:32:06.119Z,354.45
2022-12-22T06:34:54.097Z,367.67
2022-12-22T06:37:43.391Z,350.90
2022-12-22T06:40:31.412Z,364.48
2022-12-22T06:43:19.265Z,363.58
2022-12-22T06:46:07.280Z,352.83
2022-12-22T06:48:55.284Z,355.65
2022-12-22T06:51:43.672Z,364.58
2022-12-22T06:54:32.979Z,345.98
2022-12-22T06:57:20.897Z,349.20
2022-12-22T07:00:10.543Z,376.58
2022-12-22T07:02:58.850Z,377.75
2022-12-22T07:05:27.008Z,350.80
2022-12-22T07:07:54.821Z,359.75
2022-12-22T07:10:43.849Z,377.33
2022-12-22T07:13:20.277Z,364.25
2022-12-22T07:15:50.958Z,345.08
2022-12-22T07:18:25.376Z,363.88
2022-12-22T07:20:53.228Z,367.63
2022-12-22T07:23:20.963Z,362.73
2022-12-22T07:25:49.964Z,352.42
2022-12-22T07:28:20.895Z,358.27
2022-12-22T07:30:48.825Z,359.27
2022-12-22T07:33:16.917Z,341.17
2022-12-22T07:35:44.873Z,363.83
2022-12-22T07:38:13.282Z,349.23
2022-12-22T07:40:42.373Z,355.25
2022-12-22T07:43:11.138Z,376.88
2022-12-22T07:45:39.286Z,367.17
2022-12-22T07:48:27.347Z,374.85
2022-12-22T07:50:55.202Z,347.77
2022-12-22T07:53:22.879Z,347.35
2022-12-22T07:55:50.585Z,355.98
2022-12-22T07:58:19.667Z,357.60
2022-12-22T08:00:47.930Z,341.38
2022-12-22T08:03:15.714Z,365.63
2022-12-22T08:05:44.475Z,350.33
2022-12-22T08:08:12.195Z,343.35
2022-12-22T08:10:39.927Z,339.40
2022-12-22T08:13:07.722Z,355.85
2022-12-22T08:15:38.000Z,345.63
2022-12-22T08:18:05.858Z,338.45
2022-12-22T08:20:33.575Z,353.75
2022-12-22T08:23:01.279Z,332.92
2022-12-22T08:25:29.067Z,349.27
2022-12-22T08:27:58.249Z,354.92
2022-12-22T08:30:26.415Z,341.23
2022-12-22T08:32:55.446Z,334.40
2022-12-22T08:35:23.285Z,351.75
2022-12-22T08:37:52.619Z,323.85
2022-12-22T08:40:23.531Z,340.50
2022-12-22T08:42:55.223Z,328.80
2022-12-22T08:45:22.938Z,349.00
2022-12-22T08:47:50.638Z,337.67
2022-12-22T08:50:19.764Z,327.65
2022-12-22T08:52:47.495Z,323.05
2022-12-22T08:55:15.317Z,330.10
2022-12-22T08:57:43.185Z,324.60
2022-12-22T09:00:13.517Z,320.35
2022-12-22T09:02:41.606Z,318.05
2022-12-22T09:05:10.130Z,310.75
2022-12-22T09:07:39.171Z,295.30
2022-12-22T09:10:08.222Z,307.10
2022-12-22T09:12:36.131Z,318.02
2022-12-22T09:15:03.971Z,311.92
2022-12-22T09:17:31.612Z,310.30
2022-12-22T09:19:59.490Z,318.40
2022-12-22T09:22:28.365Z,317.88
2022-12-22T09:24:57.947Z,295.02
2022-12-22T09:27:25.686Z,298.90
2022-12-22T09:29:53.386Z,313.38
2022-12-22T09:32:21.085Z,301.98
2022-12-22T09:34:49.283Z,298.02
2022-12-22T09:37:17.352Z,310.05
2022-12-22T09:39:45.248Z,300.52
2022-12-22T09:42:16.476Z,304.27
2022-12-22T09:44:46.308Z,301.70
2022-12-22T09:47:19.859Z,300.60
2022-12-22T09:49:47.759Z,288.05
2022-12-22T09:52:26.167Z,293.58
2022-12-22T09:54:53.946Z,303.17
2022-12-22T09:57:29.813Z,303.83
2022-12-22T09:59:58.689Z,309.10
2022-12-22T10:02:32.835Z,293.08
2022-12-22T10:05:15.931Z,295.48
2022-12-22T10:07:44.495Z,291.45
2022-12-22T10:10:24.820Z,284.30
2022-12-22T10:12:56.094Z,306.17
2022-12-22T10:15:24.627Z,310.50
2022-12-22T10:17:54.396Z,285.88
2022-12-22T10:20:26.283Z,298.17
2022-12-22T10:22:56.308Z,293.50
2022-12-22T10:25:51.873Z,287.10
2022-12-22T10:28:25.204Z,306.58
2022-12-22T10:31:11.434Z,312.92
2022-12-22T10:33:45.953Z,311.80
2022-12-22T10:36:15.870Z,327.77
2022-12-22T10:38:57.213Z,329.17
2022-12-22T10:41:28.189Z,334.90
2022-12-22T10:43:59.963Z,328.70
2022-12-22T10:46:35.020Z,319.67
2022-12-22T10:49:17.817Z,319.50
2022-12-22T10:51:48.009Z,322.88
2022-12-22T10:54:30.301Z,301.60
2022-12-22T10:57:07.909Z,298.42
2022-12-22T10:59:49.082Z,305.95
2022-12-22T11:02:30.076Z,299.80
2022-12-22T11:05:04.102Z,322.55
2022-12-22T11:07:34.599Z,312.58
2022-12-22T11:10:02.759Z,293.73
2022-12-22T11:12:39.145Z,321.83
2022-12-22T11:15:24.283Z,302.88
2022-12-22T11:17:59.322Z,297.30
2022-12-22T11:20:47.259Z,302.45
2022-12-22T11:23:26.446Z,310.38
2022-12-22T11:26:01.518Z,300.63
2022-12-22T11:28:54.175Z,309.98
2022-12-22T11:31:39.878Z,308.70
2022-12-22T11:34:21.513Z,298.67
2022-12-22T11:37:03.408Z,293.45
2022-12-22T11:39:41.290Z,318.58
2022-12-22T11:42:25.636Z,290.25
2022-12-22T11:45:04.869Z,305.67
2022-12-22T11:47:44.753Z,312.73
2022-12-22T11:50:58.533Z,289.48
2022-12-22T11:53:53.907Z,304.23
2022-12-22T11:56:25.214Z,280.17
2022-12-22T11:59:11.618Z,303.10
2022-12-22T12:01:59.019Z,275.40
2022-12-22T12:04:48.506Z,302.92
2022-12-22T12:07:26.254Z,270.50
2022-12-22T12:10:03.333Z,294.70
2022-12-22T12:12:43.439Z,274.15
2022-12-22T12:15:23.751Z,294.75
2022-12-22T12:18:22.642Z,277.00
2022-12-22T12:21:03.239Z,276.33
2022-12-22T12:23:51.103Z,305.48
2022-12-22T12:26:23.919Z,270.35
2022-12-22T12:29:05.702Z,278.73
2022-12-22T12:31:40.333Z,287.88
2022-12-22T12:34:13.686Z,289.20
2022-12-22T12:36:49.575Z,288.73
2022-12-22T12:39:23.684Z,307.92
2022-12-22T12:42:00.292Z,296.52
2022-12-22T12:44:32.520Z,271.33
2022-12-22T12:47:23.900Z,298.23
2022-12-22T12:50:27.181Z,293.40
2022-12-22T12:53:07.934Z,276.00
2022-12-22T12:55:52.992Z,270.75
2022-12-22T12:59:02.338Z,284.63
2022-12-22T13:01:58.108Z,292.02
2022-12-22T13:05:14.798Z,290.95
2022-12-22T13:08:14.377Z,275.20
2022-12-22T13:12:01.197Z,276.65
2022-12-22T13:14:11.350Z,275.15
2022-12-22T13:16:41.275Z,276.58
2022-12-22T13:19:20.688Z,292.23
2022-12-22T13:21:54.260Z,286.02
2022-12-22T13:24:29.715Z,279.80
2022-12-22T13:27:06.574Z,297.17
2022-12-22T13:29:46.255Z,281.23
2022-12-22T13:32:22.027Z,272.98
2022-12-22T13:35:29.944Z,279.27
2022-12-22T13:37:47.712Z,282.67
2022-12-22T13:40:20.043Z,289.38
2022-12-22T13:42:50.347Z,283.33
2022-12-22T13:45:30.621Z,288.65
2022-12-22T13:48:00.708Z,279.20
2022-12-22T13:50:33.322Z,284.02
2022-12-22T13:53:03.888Z,267.17
2022-12-22T13:55:34.070Z,300.17
2022-12-22T13:58:07.155Z,269.05
2022-12-22T14:00:35.319Z,267.23
2022-12-22T14:03:04.812Z,297.08
2022-12-22T14:05:34.223Z,271.40
2022-12-22T14:08:04.076Z,270.38
2022-12-22T14:10:36.788Z,284.58
2022-12-22T14:13:08.834Z,285.85
2022-12-22T14:15:36.614Z,271.85
2022-12-22T14:18:04.625Z,280.60
2022-12-22T14:20:36.438Z,303.02
2022-12-22T14:23:07.416Z,281.05
2022-12-22T14:25:39.213Z,278.05
2022-12-22T14:28:09.620Z,302.65
2022-12-22T14:30:39.789Z,282.98
2022-12-22T14:33:27.268Z,295.85
2022-12-22T14:36:06.096Z,289.27
2022-12-22T14:38:40.582Z,277.13
2022-12-22T14:41:39.667Z,286.00
2022-12-22T14:44:11.888Z,289.63
2022-12-22T14:46:40.020Z,285.20
2022-12-22T14:49:14.463Z,286.30
2022-12-22T14:51:42.387Z,295.48
2022-12-22T14:54:19.898Z,292.17
2022-12-22T14:56:52.066Z,293.23
2022-12-22T14:59:27.964Z,282.15
2022-12-22T15:02:01.115Z,299.08
2022-12-22T15:04:29.757Z,299.30
2022-12-22T15:07:45.653Z,303.58
2022-12-22T15:10:20.727Z,283.35
2022-12-22T15:12:50.742Z,283.23
2022-12-22T15:15:21.264Z,294.50
2022-12-22T15:17:50.873Z,311.92
2022-12-22T15:20:21.466Z,308.50
2022-12-22T15:22:49.350Z,294.98
2022-12-22T15:25:19.246Z,287.92
2022-12-22T15:27:47.158Z,306.40
2022-12-22T15:30:18.126Z,296.05
2022-12-22T15:32:46.392Z,287.30
2022-12-22T15:35:20.302Z,288.25
2022-12-22T15:37:48.027Z,272.40
2022-12-22T15:40:21.115Z,256.98
2022-12-22T15:42:49.233Z,276.33
2022-12-22T15:45:19.652Z,274.70
2022-12-22T15:47:50.918Z,286.67
2022-12-22T15:50:21.585Z,278.27
2022-12-22T15:52:52.525Z,277.27
2022-12-22T15:55:20.855Z,283.58
2022-12-22T15:57:51.412Z,272.85
2022-12-22T16:00:22.555Z,290.60
2022-12-22T16:02:50.854Z,287.92
2022-12-22T16:05:19.532Z,275.33
2022-12-22T16:07:47.361Z,270.10
2022-12-22T16:10:25.395Z,269.85
2022-12-22T16:12:59.970Z,273.13
2022-12-22T16:15:30.655Z,274.55
2022-12-22T16:17:59.351Z,286.92
2022-12-22T16:20:29.632Z,286.63
2022-12-22T16:22:59.714Z,285.17
2022-12-22T16:25:31.127Z,286.33
2022-12-22T16:27:58.835Z,282.70
2022-12-22T16:30:30.365Z,287.40
2022-12-22T16:32:58.083Z,299.13
2022-12-22T16:35:28.685Z,294.23
2022-12-22T16:37:59.318Z,294.83
2022-12-22T16:40:28.470Z,324.98
2022-12-22T16:45:47.448Z,306.48
2022-12-22T16:48:19.811Z,331.08
2022-12-22T16:50:48.847Z,336.67
2022-12-22T16:53:16.679Z,341.40
2022-12-22T16:55:44.446Z,303.83
2022-12-22T16:58:14.171Z,328.08
2022-12-22T17:00:44.721Z,330.60
2022-12-22T17:03:16.323Z,332.60
2022-12-22T17:05:48.151Z,312.35
2022-12-22T17:08:21.497Z,312.00
2022-12-22T17:10:49.602Z,324.55
2022-12-22T17:13:18.537Z,336.25
2022-12-22T17:15:46.466Z,335.33
2022-12-22T17:18:20.767Z,339.80
2022-12-22T17:20:51.066Z,350.38
2022-12-22T17:23:31.367Z,330.83
2022-12-22T17:26:00.484Z,322.33
2022-12-22T17:28:28.626Z,324.58
2022-12-22T17:30:56.418Z,346.83
2022-12-22T17:33:25.544Z,342.83
2022-12-22T17:35:53.709Z,321.63
2022-12-22T17:38:24.484Z,332.90
2022-12-22T17:40:52.505Z,324.63
2022-12-22T17:43:22.344Z,321.70
2022-12-22T17:45:50.035Z,311.90
2022-12-22T17:48:18.179Z,312.08
2022-12-22T17:50:49.467Z,316.05
2022-12-22T17:53:20.618Z,320.92
2022-12-22T17:58:36.543Z,290.10
2022-12-22T18:01:04.359Z,319.77
2022-12-22T18:03:32.130Z,283.35
2022-12-22T18:06:01.244Z,309.58
2022-12-22T18:08:28.993Z,310.42
2022-12-22T18:10:56.753Z,297.23
2022-12-22T18:13:26.299Z,303.25
2022-12-22T18:15:55.989Z,288.55
2022-12-22T18:18:24.165Z,304.05
2022-12-22T18:21:07.641Z,291.35
2022-12-22T18:23:37.893Z,298.27
2022-12-22T18:26:08.284Z,302.98
2022-12-22T18:28:36.456Z,283.88
2022-12-22T18:31:04.311Z,302.20
2022-12-22T18:33:32.152Z,283.20
2022-12-22T18:36:00.192Z,268.70
2022-12-22T18:38:30.783Z,308.77
2022-12-22T18:41:00.373Z,294.92
2022-12-22T18:43:28.328Z,272.30
2022-12-22T18:45:56.067Z,283.33
2022-12-22T18:48:23.785Z,297.83
2022-12-22T18:50:51.575Z,283.45
2022-12-22T18:53:25.755Z,293.73
2022-12-22T18:55:54.197Z,305.70
2022-12-22T18:58:23.431Z,305.10
2022-12-22T19:00:52.645Z,290.83
2022-12-22T19:03:22.766Z,276.25
2022-12-22T19:05:50.846Z,277.50
2022-12-22T19:08:19.695Z,301.92
2022-12-22T19:10:49.718Z,295.55
2022-12-22T19:13:27.732Z,297.42
2022-12-22T19:15:56.292Z,302.45
2022-12-22T19:18:27.307Z,291.70
2022-12-22T19:20:56.063Z,267.90
2022-12-22T19:23:25.618Z,285.13
2022-12-22T19:25:56.197Z,286.30
2022-12-22T19:28:30.103Z,302.75
2022-12-22T19:30:58.159Z,277.33
2022-12-22T19:33:30.459Z,274.20
2022-12-22T19:35:59.007Z,277.95
2022-12-22T19:38:27.982Z,273.20
2022-12-22T19:40:59.224Z,293.70
2022-12-22T19:43:28.562Z,275.83
2022-12-22T19:45:56.782Z,274.17
2022-12-22T19:48:27.435Z,279.55
2022-12-22T19:50:55.384Z,295.17
2022-12-22T19:53:23.113Z,291.33
2022-12-22T19:55:53.768Z,304.60
2022-12-22T19:58:24.903Z,295.30
2022-12-22T20:00:55.343Z,295.50
2022-12-22T20:03:25.965Z,335.15
2022-12-22T20:05:54.044Z,340.10
2022-12-22T20:08:21.714Z,320.27
2022-12-22T20:10:54.447Z,320.17
2022-12-22T20:13:26.891Z,327.50
2022-12-22T20:15:55.890Z,328.67
2022-12-22T20:18:27.502Z,315.17
2022-12-22T20:21:01.225Z,323.38
2022-12-22T20:23:32.925Z,340.10
2022-12-22T20:26:04.348Z,334.20
2022-12-22T20:28:34.482Z,334.70
2022-12-22T20:31:04.787Z,329.15
2022-12-22T20:33:33.437Z,329.70
2022-12-22T20:36:02.629Z,349.13
2022-12-22T20:38:34.067Z,350.63
2022-12-22T20:41:03.056Z,345.88
2022-12-22T20:43:32.515Z,347.13
2022-12-22T20:46:07.600Z,323.40
2022-12-22T20:48:39.229Z,326.08
2022-12-22T20:51:11.759Z,344.85
2022-12-22T20:53:39.504Z,343.20
2022-12-22T20:56:12.164Z,350.10
2022-12-22T20:58:39.866Z,331.63
2022-12-22T21:01:08.966Z,336.48
2022-12-22T21:03:55.350Z,340.88
2022-12-22T21:06:46.382Z,351.90
2022-12-22T21:09:34.689Z,345.77
2022-12-22T21:12:22.614Z,352.37
2022-12-22T21:15:17.382Z,344.13
2022-12-22T21:18:13.867Z,348.50
2022-12-22T21:21:01.923Z,325.87
2022-12-22T21:23:50.035Z,328.38
2022-12-22T21:26:42.715Z,345.87
2022-12-22T21:29:30.968Z,335.40
2022-12-22T21:32:19.029Z,336.67
2022-12-22T21:35:13.349Z,331.13
2022-12-22T21:38:01.863Z,359.67
2022-12-22T21:40:50.011Z,349.23
2022-12-22T21:43:37.987Z,351.88
2022-12-22T21:46:26.189Z,339.27
2022-12-22T21:49:19.724Z,364.08
2022-12-22T21:52:10.322Z,353.23
2022-12-22T21:54:58.265Z,358.05
2022-12-22T21:57:46.568Z,373.60
2022-12-22T22:00:35.332Z,360.25
2022-12-22T22:03:23.389Z,352.45
2022-12-22T22:06:11.312Z,357.73
2022-12-22T22:09:00.903Z,349.70
2022-12-22T22:12:06.486Z,351.58
2022-12-22T22:14:54.534Z,344.77
2022-12-22T22:17:43.535Z,365.65
2022-12-22T22:20:33.022Z,360.42
2022-12-22T22:23:21.077Z,354.55
2022-12-22T22:26:11.592Z,336.67
2022-12-22T22:28:59.662Z,352.90
2022-12-22T22:31:47.775Z,371.17
2022-12-22T22:34:35.965Z,355.57
2022-12-22T22:37:24.117Z,346.53
2022-12-22T22:40:15.030Z,367.77
2022-12-22T22:43:04.593Z,343.37
2022-12-22T22:45:53.143Z,379.43
2022-12-22T22:48:41.195Z,343.08
2022-12-22T22:51:29.218Z,348.45
2022-12-22T22:54:17.225Z,349.80
2022-12-22T22:57:05.449Z,361.88
2022-12-22T22:59:54.771Z,372.90
2022-12-22T23:02:43.016Z,352.93
2022-12-22T23:05:31.092Z,353.52
2022-12-22T23:08:19.056Z,367.00
2022-12-22T23:11:07.408Z,366.05
2022-12-22T23:13:56.125Z,353.08
2022-12-22T23:16:45.486Z,366.63
2022-12-22T23:19:33.566Z,352.23
2022-12-22T23:22:21.553Z,375.00
2022-12-22T23:25:10.305Z,377.00
2022-12-22T23:27:58.274Z,376.17
2022-12-22T23:30:49.704Z,357.40
2022-12-22T23:33:39.130Z,353.45
2022-12-22T23:36:27.200Z,358.27
2022-12-22T23:39:15.370Z,375.37
2022-12-22T23:42:03.878Z,368.20
2022-12-22T23:44:51.859Z,374.43
2022-12-22T23:47:39.873Z,360.10
2022-12-22T23:50:29.242Z,370.27
2022-12-22T23:53:18.031Z,354.25
2022-12-22T23:56:07.012Z,367.47
2022-12-22T23:58:55.387Z,386.70
